Airfield :
LOGIN :

Register | Disclaimer

   EN    FR    IT 

 










Legend :    VFR   Marginal VFR   IFR   Intensive IFR   Very Intensive IFR
Visi :
Ceiling :
>= 8 km
>= 3000ft
5 to 8 km
1000 to 3000 ft
1500m to 5 km
500 to 1000 ft
800 to 1500m
200 to 500 ft
< 800m
< 200 ft
Symbols :   Thunderstorms  Fog  Heavy snow  Heavy precipitations  Wind > 20 kt
SIGMETs :     Misc.  Thunderstorms  Icing  Turbulence  Mountain Waves  Volcanic Ashes







- Airport Elevation : 289 ft
- Download approach charts


LFYR - Romorantin Pruniers

CURRENT METAR :
  • 200700Z AUTO 30007KT 260V340 9999 BKN009 BKN015 BKN021 16/14 Q1015 TEMPO 4000 -RA SCT010 BKN020

EXPIRED METARs :
  • 200630Z AUTO 28007KT 210V340 9000 RA BKN010 BKN017 OVC024 16/14 Q1014 TEMPO 4000 -RA SCT010 BKN020
  • 200600Z AUTO 23006KT 200V270 9999 BKN010 OVC014 17/15 Q1014 TEMPO 4000 -RA SCT010 BKN020
  • 200530Z AUTO 23004KT 190V260 9999 OVC013 16/15 Q1014 TEMPO 4000 -RA SCT010 BKN020
  • 200500Z AUTO 23004KT 190V260 9999 SCT012 BKN019 OVC025 16/15 Q1014 TEMPO 4000 -RA
  • 200430Z AUTO 22003KT 9999 BKN020 OVC058 16/14 Q1014

Expired Forecast.
No reported NOTAMs for that airfield.



MET'MAP, your aeronautical weather chart ! - Copyright ORBIFLY December 2007 - Disclaimer

ORBIFLY MET'MAP TEAM :

Programming & Development : Alexandra Zaïnal
Concept & Development : Baudouin d'Aumeries
Co-Development & Prog : Marc-Olivier Méhu
Technical & hardware support : Manuel Goepfert

Contact : metmap@orbifly.com




SOURCES & CREDITS :

   NOAA